sensor_id;sensor_type;location;lat;lon;timestamp;temperature;humidity
2721;DHT22;1368;49.484;11.112;2023-02-13T00:00:06;5.40;99.90
2721;DHT22;1368;49.484;11.112;2023-02-13T00:02:32;5.30;99.90
2721;DHT22;1368;49.484;11.112;2023-02-13T00:04:58;5.30;99.90
2721;DHT22;1368;49.484;11.112;2023-02-13T00:07:23;5.10;99.90
2721;DHT22;1368;49.484;11.112;2023-02-13T00:09:49;4.60;99.90
2721;DHT22;1368;49.484;11.112;2023-02-13T00:12:14;4.40;99.90
2721;DHT22;1368;49.484;11.112;2023-02-13T00:14:40;4.10;99.90
2721;DHT22;1368;49.484;11.112;2023-02-13T00:17:06;4.00;99.90
2721;DHT22;1368;49.484;11.112;2023-02-13T00:19:32;3.80;99.90
2721;DHT22;1368;49.484;11.112;2023-02-13T00:21:57;3.70;99.90
2721;DHT22;1368;49.484;11.112;2023-02-13T00:24:23;3.80;99.90
2721;DHT22;1368;49.484;11.112;2023-02-13T00:26:49;3.70;99.90
2721;DHT22;1368;49.484;11.112;2023-02-13T00:29:14;3.70;99.90
2721;DHT22;1368;49.484;11.112;2023-02-13T00:31:40;3.70;99.90
2721;DHT22;1368;49.484;11.112;2023-02-13T00:34:05;3.60;99.90
2721;DHT22;1368;49.484;11.112;2023-02-13T00:36:31;3.30;99.90
2721;DHT22;1368;49.484;11.112;2023-02-13T00:38:56;3.30;99.90
2721;DHT22;1368;49.484;11.112;2023-02-13T00:41:22;3.20;99.90
2721;DHT22;1368;49.484;11.112;2023-02-13T00:43:48;3.20;99.90
2721;DHT22;1368;49.484;11.112;2023-02-13T00:46:15;3.40;99.90
2721;DHT22;1368;49.484;11.112;2023-02-13T00:48:41;3.30;99.90
2721;DHT22;1368;49.484;11.112;2023-02-13T00:51:07;3.30;99.90
2721;DHT22;1368;49.484;11.112;2023-02-13T00:53:34;3.20;99.90
2721;DHT22;1368;49.484;11.112;2023-02-13T00:56:00;3.10;99.90
2721;DHT22;1368;49.484;11.112;2023-02-13T00:58:26;3.00;99.90
2721;DHT22;1368;49.484;11.112;2023-02-13T01:00:53;2.70;99.90
2721;DHT22;1368;49.484;11.112;2023-02-13T01:03:19;2.80;99.90
2721;DHT22;1368;49.484;11.112;2023-02-13T01:05:45;2.60;99.90
2721;DHT22;1368;49.484;11.112;2023-02-13T01:08:11;2.60;99.90
2721;DHT22;1368;49.484;11.112;2023-02-13T01:10:38;2.80;99.90
2721;DHT22;1368;49.484;11.112;2023-02-13T01:13:04;3.10;99.90
2721;DHT22;1368;49.484;11.112;2023-02-13T01:15:31;3.20;99.90
2721;DHT22;1368;49.484;11.112;2023-02-13T01:17:57;3.10;99.90
2721;DHT22;1368;49.484;11.112;2023-02-13T01:20:23;3.20;99.90
2721;DHT22;1368;49.484;11.112;2023-02-13T01:22:49;3.30;99.90
2721;DHT22;1368;49.484;11.112;2023-02-13T01:25:15;3.50;99.90
2721;DHT22;1368;49.484;11.112;2023-02-13T01:27:41;4.20;99.90
2721;DHT22;1368;49.484;11.112;2023-02-13T01:30:08;3.60;99.90
2721;DHT22;1368;49.484;11.112;2023-02-13T01:32:38;3.60;99.90
2721;DHT22;1368;49.484;11.112;2023-02-13T01:35:05;3.50;99.90
2721;DHT22;1368;49.484;11.112;2023-02-13T01:37:31;3.40;99.90
2721;DHT22;1368;49.484;11.112;2023-02-13T01:39:57;3.40;99.90
2721;DHT22;1368;49.484;11.112;2023-02-13T01:42:27;3.50;99.90
2721;DHT22;1368;49.484;11.112;2023-02-13T01:47:38;3.50;99.90
2721;DHT22;1368;49.484;11.112;2023-02-13T01:50:24;3.40;99.90
2721;DHT22;1368;49.484;11.112;2023-02-13T01:52:59;3.40;99.90
2721;DHT22;1368;49.484;11.112;2023-02-13T01:55:25;3.50;99.90
2721;DHT22;1368;49.484;11.112;2023-02-13T01:57:58;3.60;99.90
2721;DHT22;1368;49.484;11.112;2023-02-13T02:00:26;3.40;99.90
2721;DHT22;1368;49.484;11.112;2023-02-13T02:02:57;3.30;99.90
2721;DHT22;1368;49.484;11.112;2023-02-13T02:05:26;3.20;99.90
2721;DHT22;1368;49.484;11.112;2023-02-13T02:07:54;2.90;99.90
2721;DHT22;1368;49.484;11.112;2023-02-13T02:10:20;2.90;99.90
2721;DHT22;1368;49.484;11.112;2023-02-13T02:13:06;2.90;99.90
2721;DHT22;1368;49.484;11.112;2023-02-13T02:15:32;3.10;99.90
2721;DHT22;1368;49.484;11.112;2023-02-13T02:17:58;3.00;99.90
2721;DHT22;1368;49.484;11.112;2023-02-13T02:20:45;2.80;99.90
2721;DHT22;1368;49.484;11.112;2023-02-13T02:26:46;2.90;99.90
2721;DHT22;1368;49.484;11.112;2023-02-13T02:29:43;2.80;99.90
2721;DHT22;1368;49.484;11.112;2023-02-13T02:37:55;2.60;99.90
2721;DHT22;1368;49.484;11.112;2023-02-13T02:41:02;2.60;99.90
2721;DHT22;1368;49.484;11.112;2023-02-13T02:46:22;2.90;99.90
2721;DHT22;1368;49.484;11.112;2023-02-13T02:51:47;2.90;99.90
2721;DHT22;1368;49.484;11.112;2023-02-13T02:54:39;2.90;99.90
2721;DHT22;1368;49.484;11.112;2023-02-13T02:57:29;2.90;99.90
2721;DHT22;1368;49.484;11.112;2023-02-13T03:00:17;2.90;99.90
2721;DHT22;1368;49.484;11.112;2023-02-13T03:03:04;2.90;99.90
2721;DHT22;1368;49.484;11.112;2023-02-13T03:05:51;2.90;99.90
2721;DHT22;1368;49.484;11.112;2023-02-13T03:08:36;2.90;99.90
2721;DHT22;1368;49.484;11.112;2023-02-13T03:11:21;2.90;99.90
2721;DHT22;1368;49.484;11.112;2023-02-13T03:14:06;2.80;99.90
2721;DHT22;1368;49.484;11.112;2023-02-13T03:16:33;2.70;99.90
2721;DHT22;1368;49.484;11.112;2023-02-13T03:28:21;2.50;99.90
2721;DHT22;1368;49.484;11.112;2023-02-13T03:31:23;2.50;99.90
2721;DHT22;1368;49.484;11.112;2023-02-13T03:39:51;2.50;99.90
2721;DHT22;1368;49.484;11.112;2023-02-13T03:42:28;2.40;99.90
2721;DHT22;1368;49.484;11.112;2023-02-13T03:44:56;2.40;99.90
2721;DHT22;1368;49.484;11.112;2023-02-13T03:47:42;2.30;99.90
2721;DHT22;1368;49.484;11.112;2023-02-13T03:50:10;2.20;99.90
2721;DHT22;1368;49.484;11.112;2023-02-13T03:52:38;2.10;99.90
2721;DHT22;1368;49.484;11.112;2023-02-13T03:55:18;2.10;99.90
2721;DHT22;1368;49.484;11.112;2023-02-13T03:58:07;2.10;99.90
2721;DHT22;1368;49.484;11.112;2023-02-13T04:00:54;2.20;99.90
2721;DHT22;1368;49.484;11.112;2023-02-13T04:03:38;2.00;99.90
2721;DHT22;1368;49.484;11.112;2023-02-13T04:06:26;2.00;99.90
2721;DHT22;1368;49.484;11.112;2023-02-13T04:08:54;2.00;99.90
2721;DHT22;1368;49.484;11.112;2023-02-13T04:11:30;2.00;99.90
2721;DHT22;1368;49.484;11.112;2023-02-13T04:14:06;2.00;99.90
2721;DHT22;1368;49.484;11.112;2023-02-13T04:16:48;2.00;99.90
2721;DHT22;1368;49.484;11.112;2023-02-13T04:19:16;2.00;99.90
2721;DHT22;1368;49.484;11.112;2023-02-13T04:21:42;2.10;99.90
2721;DHT22;1368;49.484;11.112;2023-02-13T04:24:08;2.10;99.90
2721;DHT22;1368;49.484;11.112;2023-02-13T04:26:36;2.20;99.90
2721;DHT22;1368;49.484;11.112;2023-02-13T04:29:02;2.30;99.90
2721;DHT22;1368;49.484;11.112;2023-02-13T04:31:28;2.20;99.90
2721;DHT22;1368;49.484;11.112;2023-02-13T04:33:54;2.30;99.90
2721;DHT22;1368;49.484;11.112;2023-02-13T04:36:19;2.30;99.90
2721;DHT22;1368;49.484;11.112;2023-02-13T04:38:45;2.20;99.90
2721;DHT22;1368;49.484;11.112;2023-02-13T04:41:11;2.30;99.90
2721;DHT22;1368;49.484;11.112;2023-02-13T04:43:36;2.40;99.90
2721;DHT22;1368;49.484;11.112;2023-02-13T04:46:02;2.50;99.90
2721;DHT22;1368;49.484;11.112;2023-02-13T04:48:28;2.60;99.90
2721;DHT22;1368;49.484;11.112;2023-02-13T04:50:54;2.70;99.90
2721;DHT22;1368;49.484;11.112;2023-02-13T04:53:19;2.70;99.90
2721;DHT22;1368;49.484;11.112;2023-02-13T04:55:45;2.70;99.90
2721;DHT22;1368;49.484;11.112;2023-02-13T04:58:10;2.70;99.90
2721;DHT22;1368;49.484;11.112;2023-02-13T05:00:36;2.40;99.90
2721;DHT22;1368;49.484;11.112;2023-02-13T05:03:06;2.00;99.90
2721;DHT22;1368;49.484;11.112;2023-02-13T05:05:33;2.00;99.90
2721;DHT22;1368;49.484;11.112;2023-02-13T05:07:59;2.00;99.90
2721;DHT22;1368;49.484;11.112;2023-02-13T05:10:25;2.00;99.90
2721;DHT22;1368;49.484;11.112;2023-02-13T05:12:51;1.80;99.90
2721;DHT22;1368;49.484;11.112;2023-02-13T05:15:17;1.50;99.90
2721;DHT22;1368;49.484;11.112;2023-02-13T05:17:43;1.10;99.90
2721;DHT22;1368;49.484;11.112;2023-02-13T05:20:10;1.10;99.90
2721;DHT22;1368;49.484;11.112;2023-02-13T05:22:36;1.40;99.90
2721;DHT22;1368;49.484;11.112;2023-02-13T05:25:20;1.40;99.90
2721;DHT22;1368;49.484;11.112;2023-02-13T05:27:45;1.10;99.90
2721;DHT22;1368;49.484;11.112;2023-02-13T05:30:12;1.00;99.90
2721;DHT22;1368;49.484;11.112;2023-02-13T05:32:37;0.90;99.90
2721;DHT22;1368;49.484;11.112;2023-02-13T05:35:04;0.90;99.90
2721;DHT22;1368;49.484;11.112;2023-02-13T05:37:30;0.80;99.90
2721;DHT22;1368;49.484;11.112;2023-02-13T05:39:55;0.80;99.90
2721;DHT22;1368;49.484;11.112;2023-02-13T05:42:21;1.00;99.90
2721;DHT22;1368;49.484;11.112;2023-02-13T05:44:47;1.20;99.90
2721;DHT22;1368;49.484;11.112;2023-02-13T05:47:12;0.90;99.90
2721;DHT22;1368;49.484;11.112;2023-02-13T05:49:38;0.90;99.90
2721;DHT22;1368;49.484;11.112;2023-02-13T05:52:03;0.90;99.90
2721;DHT22;1368;49.484;11.112;2023-02-13T05:54:29;1.00;99.90
2721;DHT22;1368;49.484;11.112;2023-02-13T05:56:54;1.20;99.90
2721;DHT22;1368;49.484;11.112;2023-02-13T05:59:20;1.30;99.90
2721;DHT22;1368;49.484;11.112;2023-02-13T06:01:46;1.40;99.90
2721;DHT22;1368;49.484;11.112;2023-02-13T06:04:11;1.30;99.90
2721;DHT22;1368;49.484;11.112;2023-02-13T06:06:37;1.40;99.90
2721;DHT22;1368;49.484;11.112;2023-02-13T06:09:02;1.60;99.90
2721;DHT22;1368;49.484;11.112;2023-02-13T06:11:28;1.60;99.90
2721;DHT22;1368;49.484;11.112;2023-02-13T06:13:54;1.50;99.90
2721;DHT22;1368;49.484;11.112;2023-02-13T06:16:19;1.40;99.90
2721;DHT22;1368;49.484;11.112;2023-02-13T06:18:45;1.50;99.90
2721;DHT22;1368;49.484;11.112;2023-02-13T06:21:10;1.30;99.90
2721;DHT22;1368;49.484;11.112;2023-02-13T06:23:36;1.30;99.90
2721;DHT22;1368;49.484;11.112;2023-02-13T06:26:06;1.10;99.90
2721;DHT22;1368;49.484;11.112;2023-02-13T06:28:32;1.10;99.90
2721;DHT22;1368;49.484;11.112;2023-02-13T06:30:58;1.10;99.90
2721;DHT22;1368;49.484;11.112;2023-02-13T06:33:24;1.10;99.90
2721;DHT22;1368;49.484;11.112;2023-02-13T06:35:50;0.90;99.90
2721;DHT22;1368;49.484;11.112;2023-02-13T06:38:15;0.90;99.90
2721;DHT22;1368;49.484;11.112;2023-02-13T06:40:44;0.80;99.90
2721;DHT22;1368;49.484;11.112;2023-02-13T06:43:10;0.90;99.90
2721;DHT22;1368;49.484;11.112;2023-02-13T06:45:36;1.10;99.90
2721;DHT22;1368;49.484;11.112;2023-02-13T06:48:02;0.90;99.90
2721;DHT22;1368;49.484;11.112;2023-02-13T06:50:27;1.00;99.90
2721;DHT22;1368;49.484;11.112;2023-02-13T06:52:53;1.00;99.90
2721;DHT22;1368;49.484;11.112;2023-02-13T06:55:19;1.00;99.90
2721;DHT22;1368;49.484;11.112;2023-02-13T06:57:45;1.10;99.90
2721;DHT22;1368;49.484;11.112;2023-02-13T07:00:12;1.20;99.90
2721;DHT22;1368;49.484;11.112;2023-02-13T07:02:39;1.40;99.90
2721;DHT22;1368;49.484;11.112;2023-02-13T07:05:05;1.60;99.90
2721;DHT22;1368;49.484;11.112;2023-02-13T07:07:35;1.80;99.90
2721;DHT22;1368;49.484;11.112;2023-02-13T07:10:01;1.90;99.90
2721;DHT22;1368;49.484;11.112;2023-02-13T07:12:27;2.20;99.90
2721;DHT22;1368;49.484;11.112;2023-02-13T07:14:52;2.00;99.90
2721;DHT22;1368;49.484;11.112;2023-02-13T07:17:18;1.90;99.90
2721;DHT22;1368;49.484;11.112;2023-02-13T07:19:43;2.10;99.90
2721;DHT22;1368;49.484;11.112;2023-02-13T07:22:09;2.30;99.90
2721;DHT22;1368;49.484;11.112;2023-02-13T07:24:35;2.40;99.90
2721;DHT22;1368;49.484;11.112;2023-02-13T07:27:03;2.60;99.90
2721;DHT22;1368;49.484;11.112;2023-02-13T07:29:28;2.70;99.90
2721;DHT22;1368;49.484;11.112;2023-02-13T07:31:54;2.90;99.90
2721;DHT22;1368;49.484;11.112;2023-02-13T07:34:20;3.10;99.90
2721;DHT22;1368;49.484;11.112;2023-02-13T07:36:46;3.20;99.90
2721;DHT22;1368;49.484;11.112;2023-02-13T07:39:11;3.10;99.90
2721;DHT22;1368;49.484;11.112;2023-02-13T07:41:37;3.20;99.90
2721;DHT22;1368;49.484;11.112;2023-02-13T07:44:02;3.10;99.90
2721;DHT22;1368;49.484;11.112;2023-02-13T07:46:28;3.00;99.90
2721;DHT22;1368;49.484;11.112;2023-02-13T07:48:53;3.20;99.90
2721;DHT22;1368;49.484;11.112;2023-02-13T07:51:20;3.30;99.90
2721;DHT22;1368;49.484;11.112;2023-02-13T07:53:50;3.40;99.90
2721;DHT22;1368;49.484;11.112;2023-02-13T07:56:16;3.40;99.90
2721;DHT22;1368;49.484;11.112;2023-02-13T07:58:41;3.50;99.90
2721;DHT22;1368;49.484;11.112;2023-02-13T08:01:10;3.40;99.90
2721;DHT22;1368;49.484;11.112;2023-02-13T08:03:36;3.60;99.90
2721;DHT22;1368;49.484;11.112;2023-02-13T08:06:03;4.10;99.90
2721;DHT22;1368;49.484;11.112;2023-02-13T08:08:28;4.10;99.90
2721;DHT22;1368;49.484;11.112;2023-02-13T08:10:54;4.00;99.90
2721;DHT22;1368;49.484;11.112;2023-02-13T08:13:39;4.10;99.90
2721;DHT22;1368;49.484;11.112;2023-02-13T08:16:05;4.20;99.90
2721;DHT22;1368;49.484;11.112;2023-02-13T08:18:30;4.30;99.90
2721;DHT22;1368;49.484;11.112;2023-02-13T08:20:56;4.40;99.90
2721;DHT22;1368;49.484;11.112;2023-02-13T08:23:22;4.40;99.90
2721;DHT22;1368;49.484;11.112;2023-02-13T08:25:47;4.30;99.90
2721;DHT22;1368;49.484;11.112;2023-02-13T08:28:15;4.50;99.90
2721;DHT22;1368;49.484;11.112;2023-02-13T08:30:40;4.40;99.90
2721;DHT22;1368;49.484;11.112;2023-02-13T08:33:06;4.50;99.90
2721;DHT22;1368;49.484;11.112;2023-02-13T08:35:32;4.80;99.90
2721;DHT22;1368;49.484;11.112;2023-02-13T08:38:01;4.90;99.90
2721;DHT22;1368;49.484;11.112;2023-02-13T08:40:27;5.10;99.90
2721;DHT22;1368;49.484;11.112;2023-02-13T08:42:59;4.70;99.90
2721;DHT22;1368;49.484;11.112;2023-02-13T08:45:25;4.80;99.90
2721;DHT22;1368;49.484;11.112;2023-02-13T08:47:55;4.80;99.90
2721;DHT22;1368;49.484;11.112;2023-02-13T08:50:20;4.90;99.90
2721;DHT22;1368;49.484;11.112;2023-02-13T08:52:46;4.90;99.90
2721;DHT22;1368;49.484;11.112;2023-02-13T08:55:11;5.00;99.90
2721;DHT22;1368;49.484;11.112;2023-02-13T08:57:37;4.70;99.90
2721;DHT22;1368;49.484;11.112;2023-02-13T09:00:03;4.70;99.90
2721;DHT22;1368;49.484;11.112;2023-02-13T09:02:28;4.80;99.90
2721;DHT22;1368;49.484;11.112;2023-02-13T09:04:54;4.70;99.90
2721;DHT22;1368;49.484;11.112;2023-02-13T09:07:20;4.90;99.90
2721;DHT22;1368;49.484;11.112;2023-02-13T09:09:45;5.10;99.90
2721;DHT22;1368;49.484;11.112;2023-02-13T09:12:11;5.30;99.90
2721;DHT22;1368;49.484;11.112;2023-02-13T09:14:37;5.20;99.90
2721;DHT22;1368;49.484;11.112;2023-02-13T09:17:04;5.00;99.90
2721;DHT22;1368;49.484;11.112;2023-02-13T09:19:29;5.10;99.90
2721;DHT22;1368;49.484;11.112;2023-02-13T09:21:55;5.50;99.90
2721;DHT22;1368;49.484;11.112;2023-02-13T09:24:20;5.60;99.90
2721;DHT22;1368;49.484;11.112;2023-02-13T09:26:46;6.00;99.90
2721;DHT22;1368;49.484;11.112;2023-02-13T09:29:12;5.80;99.90
2721;DHT22;1368;49.484;11.112;2023-02-13T09:31:37;5.90;99.90
2721;DHT22;1368;49.484;11.112;2023-02-13T09:34:03;6.00;99.90
2721;DHT22;1368;49.484;11.112;2023-02-13T09:36:28;5.80;99.90
2721;DHT22;1368;49.484;11.112;2023-02-13T09:38:55;5.80;99.90
2721;DHT22;1368;49.484;11.112;2023-02-13T09:41:27;6.10;99.90
2721;DHT22;1368;49.484;11.112;2023-02-13T09:44:14;6.30;99.90
2721;DHT22;1368;49.484;11.112;2023-02-13T09:47:03;6.40;99.90
2721;DHT22;1368;49.484;11.112;2023-02-13T09:49:32;6.60;99.90
2721;DHT22;1368;49.484;11.112;2023-02-13T09:52:00;6.60;99.90
2721;DHT22;1368;49.484;11.112;2023-02-13T09:54:26;6.60;99.90
2721;DHT22;1368;49.484;11.112;2023-02-13T09:57:02;6.50;99.90
2721;DHT22;1368;49.484;11.112;2023-02-13T09:59:43;6.50;99.90
2721;DHT22;1368;49.484;11.112;2023-02-13T10:11:10;6.50;99.90
2721;DHT22;1368;49.484;11.112;2023-02-13T10:14:40;6.70;99.90
2721;DHT22;1368;49.484;11.112;2023-02-13T10:16:49;6.80;99.90
2721;DHT22;1368;49.484;11.112;2023-02-13T10:19:27;7.30;99.90
2721;DHT22;1368;49.484;11.112;2023-02-13T10:21:58;7.30;99.90
2721;DHT22;1368;49.484;11.112;2023-02-13T10:24:32;7.30;99.90
2721;DHT22;1368;49.484;11.112;2023-02-13T10:27:02;7.10;99.90
2721;DHT22;1368;49.484;11.112;2023-02-13T10:32:18;7.20;99.90
2721;DHT22;1368;49.484;11.112;2023-02-13T10:34:47;7.10;99.90
2721;DHT22;1368;49.484;11.112;2023-02-13T10:37:17;7.10;99.90
2721;DHT22;1368;49.484;11.112;2023-02-13T10:39:46;7.40;99.90
2721;DHT22;1368;49.484;11.112;2023-02-13T10:50:25;8.20;99.90
2721;DHT22;1368;49.484;11.112;2023-02-13T10:53:10;8.60;99.90
2721;DHT22;1368;49.484;11.112;2023-02-13T11:03:34;9.30;99.90
2721;DHT22;1368;49.484;11.112;2023-02-13T11:06:07;9.50;99.90
2721;DHT22;1368;49.484;11.112;2023-02-13T11:08:42;9.70;99.90
2721;DHT22;1368;49.484;11.112;2023-02-13T11:21:59;10.20;99.90
2721;DHT22;1368;49.484;11.112;2023-02-13T11:24:27;10.00;99.90
2721;DHT22;1368;49.484;11.112;2023-02-13T11:26:59;10.10;99.90
2721;DHT22;1368;49.484;11.112;2023-02-13T11:29:30;10.00;99.90
2721;DHT22;1368;49.484;11.112;2023-02-13T11:34:40;10.30;99.90
2721;DHT22;1368;49.484;11.112;2023-02-13T11:39:40;10.30;99.90
2721;DHT22;1368;49.484;11.112;2023-02-13T11:45:06;10.00;99.90
2721;DHT22;1368;49.484;11.112;2023-02-13T11:49:59;9.90;99.90
2721;DHT22;1368;49.484;11.112;2023-02-13T11:52:31;10.00;99.90
2721;DHT22;1368;49.484;11.112;2023-02-13T11:55:00;10.10;99.90
2721;DHT22;1368;49.484;11.112;2023-02-13T11:57:30;10.10;99.90
2721;DHT22;1368;49.484;11.112;2023-02-13T11:59:56;10.20;99.90
2721;DHT22;1368;49.484;11.112;2023-02-13T12:02:42;10.10;99.90
2721;DHT22;1368;49.484;11.112;2023-02-13T12:05:20;10.20;99.90
2721;DHT22;1368;49.484;11.112;2023-02-13T12:07:47;10.40;99.90
2721;DHT22;1368;49.484;11.112;2023-02-13T12:10:21;10.70;99.90
2721;DHT22;1368;49.484;11.112;2023-02-13T12:15:29;10.90;99.90
2721;DHT22;1368;49.484;11.112;2023-02-13T12:18:19;10.80;99.90
2721;DHT22;1368;49.484;11.112;2023-02-13T12:26:22;11.40;99.90
2721;DHT22;1368;49.484;11.112;2023-02-13T12:51:36;10.70;99.90
2721;DHT22;1368;49.484;11.112;2023-02-13T13:05:44;11.00;99.90
2721;DHT22;1368;49.484;11.112;2023-02-13T13:08:18;10.90;99.90
2721;DHT22;1368;49.484;11.112;2023-02-13T13:11:18;11.20;99.90
2721;DHT22;1368;49.484;11.112;2023-02-13T13:19:35;11.40;99.90
2721;DHT22;1368;49.484;11.112;2023-02-13T13:22:04;11.30;99.90
2721;DHT22;1368;49.484;11.112;2023-02-13T13:28:18;11.40;99.90
2721;DHT22;1368;49.484;11.112;2023-02-13T13:30:42;11.30;99.90
2721;DHT22;1368;49.484;11.112;2023-02-13T13:33:22;11.50;99.90
2721;DHT22;1368;49.484;11.112;2023-02-13T13:38:51;11.60;99.90
2721;DHT22;1368;49.484;11.112;2023-02-13T13:41:39;11.60;99.90
2721;DHT22;1368;49.484;11.112;2023-02-13T13:44:41;11.30;99.90
2721;DHT22;1368;49.484;11.112;2023-02-13T13:47:39;11.30;99.90
2721;DHT22;1368;49.484;11.112;2023-02-13T13:50:25;11.30;99.90
2721;DHT22;1368;49.484;11.112;2023-02-13T14:03:45;11.40;99.90
2721;DHT22;1368;49.484;11.112;2023-02-13T14:06:17;11.60;99.90
2721;DHT22;1368;49.484;11.112;2023-02-13T14:11:32;11.10;99.90
2721;DHT22;1368;49.484;11.112;2023-02-13T14:13:58;11.10;99.90
2721;DHT22;1368;49.484;11.112;2023-02-13T14:19:04;11.00;99.90
2721;DHT22;1368;49.484;11.112;2023-02-13T14:21:30;11.00;99.90
2721;DHT22;1368;49.484;11.112;2023-02-13T14:23:57;10.90;99.90
2721;DHT22;1368;49.484;11.112;2023-02-13T14:26:39;11.00;99.90
2721;DHT22;1368;49.484;11.112;2023-02-13T14:29:24;11.30;99.90
2721;DHT22;1368;49.484;11.112;2023-02-13T14:32:15;11.50;99.90
2721;DHT22;1368;49.484;11.112;2023-02-13T14:34:55;11.70;99.90
2721;DHT22;1368;49.484;11.112;2023-02-13T14:37:36;11.70;99.90
2721;DHT22;1368;49.484;11.112;2023-02-13T14:42:53;10.40;99.90
2721;DHT22;1368;49.484;11.112;2023-02-13T14:45:24;10.60;99.90
2721;DHT22;1368;49.484;11.112;2023-02-13T14:47:54;11.00;99.90
2721;DHT22;1368;49.484;11.112;2023-02-13T14:50:30;11.30;99.90
2721;DHT22;1368;49.484;11.112;2023-02-13T14:52:59;11.50;99.90
2721;DHT22;1368;49.484;11.112;2023-02-13T14:55:58;11.70;99.90
2721;DHT22;1368;49.484;11.112;2023-02-13T14:58:31;11.80;99.90
2721;DHT22;1368;49.484;11.112;2023-02-13T15:06:11;12.00;99.90
2721;DHT22;1368;49.484;11.112;2023-02-13T15:08:45;11.90;99.90
2721;DHT22;1368;49.484;11.112;2023-02-13T15:11:12;12.20;99.90
2721;DHT22;1368;49.484;11.112;2023-02-13T15:14:21;11.60;99.90
2721;DHT22;1368;49.484;11.112;2023-02-13T15:19:34;11.20;99.90
2721;DHT22;1368;49.484;11.112;2023-02-13T15:22:02;11.60;99.90
2721;DHT22;1368;49.484;11.112;2023-02-13T15:24:53;11.00;99.90
2721;DHT22;1368;49.484;11.112;2023-02-13T15:27:23;10.50;99.90
2721;DHT22;1368;49.484;11.112;2023-02-13T15:30:01;10.60;99.90
2721;DHT22;1368;49.484;11.112;2023-02-13T15:32:35;10.90;99.90
2721;DHT22;1368;49.484;11.112;2023-02-13T15:35:09;11.00;99.90
2721;DHT22;1368;49.484;11.112;2023-02-13T15:37:40;11.00;99.90
2721;DHT22;1368;49.484;11.112;2023-02-13T15:40:21;11.50;99.90
2721;DHT22;1368;49.484;11.112;2023-02-13T15:42:47;11.10;99.90
2721;DHT22;1368;49.484;11.112;2023-02-13T15:45:15;11.00;99.90
2721;DHT22;1368;49.484;11.112;2023-02-13T15:47:43;11.00;99.90
2721;DHT22;1368;49.484;11.112;2023-02-13T15:50:29;11.00;99.90
2721;DHT22;1368;49.484;11.112;2023-02-13T15:52:57;10.90;99.90
2721;DHT22;1368;49.484;11.112;2023-02-13T15:55:29;10.90;99.90
2721;DHT22;1368;49.484;11.112;2023-02-13T15:57:57;10.80;99.90
2721;DHT22;1368;49.484;11.112;2023-02-13T16:00:25;10.70;99.90
2721;DHT22;1368;49.484;11.112;2023-02-13T16:02:53;10.70;99.90
2721;DHT22;1368;49.484;11.112;2023-02-13T16:05:19;10.60;99.90
2721;DHT22;1368;49.484;11.112;2023-02-13T16:07:56;10.50;99.90
2721;DHT22;1368;49.484;11.112;2023-02-13T16:10:33;10.50;99.90
2721;DHT22;1368;49.484;11.112;2023-02-13T16:13:06;10.50;99.90
2721;DHT22;1368;49.484;11.112;2023-02-13T16:15:41;10.20;99.90
2721;DHT22;1368;49.484;11.112;2023-02-13T16:18:17;10.00;99.90
2721;DHT22;1368;49.484;11.112;2023-02-13T16:20:43;9.40;99.90
2721;DHT22;1368;49.484;11.112;2023-02-13T16:23:16;8.90;99.90
2721;DHT22;1368;49.484;11.112;2023-02-13T16:25:46;8.70;99.90
2721;DHT22;1368;49.484;11.112;2023-02-13T16:28:24;8.80;99.90
2721;DHT22;1368;49.484;11.112;2023-02-13T16:30:57;8.50;99.90
2721;DHT22;1368;49.484;11.112;2023-02-13T16:36:28;8.30;99.90
2721;DHT22;1368;49.484;11.112;2023-02-13T16:38:49;8.40;99.90
2721;DHT22;1368;49.484;11.112;2023-02-13T16:43:51;7.60;99.90
2721;DHT22;1368;49.484;11.112;2023-02-13T16:46:35;7.40;99.90
2721;DHT22;1368;49.484;11.112;2023-02-13T16:49:13;7.20;99.90
2721;DHT22;1368;49.484;11.112;2023-02-13T16:51:55;7.00;99.90
2721;DHT22;1368;49.484;11.112;2023-02-13T17:07:40;7.20;99.90
2721;DHT22;1368;49.484;11.112;2023-02-13T17:10:27;7.30;99.90
2721;DHT22;1368;49.484;11.112;2023-02-13T17:12:59;7.10;99.90
2721;DHT22;1368;49.484;11.112;2023-02-13T17:15:29;7.10;99.90
2721;DHT22;1368;49.484;11.112;2023-02-13T17:17:55;6.80;99.90
2721;DHT22;1368;49.484;11.112;2023-02-13T17:20:26;6.80;99.90
2721;DHT22;1368;49.484;11.112;2023-02-13T17:22:54;6.80;99.90
2721;DHT22;1368;49.484;11.112;2023-02-13T17:27:48;6.80;99.90
2721;DHT22;1368;49.484;11.112;2023-02-13T17:30:19;6.90;99.90
2721;DHT22;1368;49.484;11.112;2023-02-13T17:32:45;6.60;99.90
2721;DHT22;1368;49.484;11.112;2023-02-13T17:35:12;6.50;99.90
2721;DHT22;1368;49.484;11.112;2023-02-13T17:37:39;6.40;99.90
2721;DHT22;1368;49.484;11.112;2023-02-13T17:40:07;6.40;99.90
2721;DHT22;1368;49.484;11.112;2023-02-13T17:42:33;6.60;99.90
2721;DHT22;1368;49.484;11.112;2023-02-13T17:44:59;6.50;99.90
2721;DHT22;1368;49.484;11.112;2023-02-13T17:47:26;6.40;99.90
2721;DHT22;1368;49.484;11.112;2023-02-13T17:49:51;6.20;99.90
2721;DHT22;1368;49.484;11.112;2023-02-13T17:52:20;6.10;99.90
2721;DHT22;1368;49.484;11.112;2023-02-13T17:54:46;6.20;99.90
2721;DHT22;1368;49.484;11.112;2023-02-13T17:57:14;6.30;99.90
2721;DHT22;1368;49.484;11.112;2023-02-13T17:59:40;6.40;99.90
2721;DHT22;1368;49.484;11.112;2023-02-13T18:02:15;6.50;99.90
2721;DHT22;1368;49.484;11.112;2023-02-13T18:04:41;6.60;99.90
2721;DHT22;1368;49.484;11.112;2023-02-13T18:07:07;6.60;99.90
2721;DHT22;1368;49.484;11.112;2023-02-13T18:09:33;6.50;99.90
2721;DHT22;1368;49.484;11.112;2023-02-13T18:11:59;6.50;99.90
2721;DHT22;1368;49.484;11.112;2023-02-13T18:14:24;6.40;99.90
2721;DHT22;1368;49.484;11.112;2023-02-13T18:16:53;6.30;99.90
2721;DHT22;1368;49.484;11.112;2023-02-13T18:19:18;6.00;99.90
2721;DHT22;1368;49.484;11.112;2023-02-13T18:21:44;5.80;99.90
2721;DHT22;1368;49.484;11.112;2023-02-13T18:24:09;5.70;99.90
2721;DHT22;1368;49.484;11.112;2023-02-13T18:26:35;5.60;99.90
2721;DHT22;1368;49.484;11.112;2023-02-13T18:29:00;5.60;99.90
2721;DHT22;1368;49.484;11.112;2023-02-13T18:31:26;5.50;99.90
2721;DHT22;1368;49.484;11.112;2023-02-13T18:33:51;5.40;99.90
2721;DHT22;1368;49.484;11.112;2023-02-13T18:36:18;5.20;99.90
2721;DHT22;1368;49.484;11.112;2023-02-13T18:38:44;5.10;99.90
2721;DHT22;1368;49.484;11.112;2023-02-13T18:41:09;4.90;99.90
2721;DHT22;1368;49.484;11.112;2023-02-13T18:43:35;4.90;99.90
2721;DHT22;1368;49.484;11.112;2023-02-13T18:46:00;4.80;99.90
2721;DHT22;1368;49.484;11.112;2023-02-13T18:48:26;4.80;99.90
2721;DHT22;1368;49.484;11.112;2023-02-13T18:50:52;4.70;99.90
2721;DHT22;1368;49.484;11.112;2023-02-13T18:53:17;4.80;99.90
2721;DHT22;1368;49.484;11.112;2023-02-13T18:55:43;4.80;99.90
2721;DHT22;1368;49.484;11.112;2023-02-13T18:58:08;4.80;99.90
2721;DHT22;1368;49.484;11.112;2023-02-13T19:00:34;4.70;99.90
2721;DHT22;1368;49.484;11.112;2023-02-13T19:02:59;4.50;99.90
2721;DHT22;1368;49.484;11.112;2023-02-13T19:05:26;4.40;99.90
2721;DHT22;1368;49.484;11.112;2023-02-13T19:07:51;4.30;99.90
2721;DHT22;1368;49.484;11.112;2023-02-13T19:10:17;4.40;99.90
2721;DHT22;1368;49.484;11.112;2023-02-13T19:12:42;4.50;99.90
2721;DHT22;1368;49.484;11.112;2023-02-13T19:15:08;4.50;99.90
2721;DHT22;1368;49.484;11.112;2023-02-13T19:17:34;4.00;99.90
2721;DHT22;1368;49.484;11.112;2023-02-13T19:20:01;4.00;99.90
2721;DHT22;1368;49.484;11.112;2023-02-13T19:22:27;3.80;99.90